Taylors, South Carolina
Current Conditions -  °F | °C
As of 7:53 AM on Tuesday 21 Oct 2014 (Local Time) from KGMU Reporting Station
Clear Clear  
Wind Chill: 51°   Ceiling: Unl
Heat Index: 51°   Visibility: 10mi
Dew Point: 47°   Wind: 6mph
Humidity: 86%   Direction: 310°NW
Pressure: 29.98"   Gusts: NA
Location:  34.89°N, 82.3°W
Report Text: KGMU 211153Z 31005KT 10SM CLR 11/08 A2998 RMK AO2 SLP148 T01060083 10133 20089 52007
Loading
Personal Weather Stations






























Interactive Weather Map
Tropical Storm Tracking
New forecast layout! Learn more

10-Day Weather Forecast

Advertisements
Track Severe Weather on mobile